sensor_id;sensor_type;location;lat;lon;timestamp;pressure;altitude;pressure_sealevel;temperature;humidity
80393;BME280;69719;45.544;10.218;2023-10-19T00:00:19;99422.25;;;13.01;96.96
80393;BME280;69719;45.544;10.218;2023-10-19T00:02:51;99415.94;;;12.97;97.25
80393;BME280;69719;45.544;10.218;2023-10-19T00:05:17;99418.63;;;13.02;97.72
80393;BME280;69719;45.544;10.218;2023-10-19T00:07:43;99420.94;;;13.15;97.52
80393;BME280;69719;45.544;10.218;2023-10-19T00:10:10;99415.69;;;13.37;95.78
80393;BME280;69719;45.544;10.218;2023-10-19T00:12:40;99420.97;;;13.42;95.36
80393;BME280;69719;45.544;10.218;2023-10-19T00:15:06;99412.53;;;13.35;94.82
80393;BME280;69719;45.544;10.218;2023-10-19T00:17:31;99404.81;;;13.23;96.01
80393;BME280;69719;45.544;10.218;2023-10-19T00:19:58;99403.72;;;13.19;96.62
80393;BME280;69719;45.544;10.218;2023-10-19T00:22:32;99402.41;;;13.17;96.68
80393;BME280;69719;45.544;10.218;2023-10-19T00:25:01;99401.69;;;13.04;97.79
80393;BME280;69719;45.544;10.218;2023-10-19T00:27:29;99404.22;;;12.99;97.17
80393;BME280;69719;45.544;10.218;2023-10-19T00:29:54;99404.69;;;12.96;97.34
80393;BME280;69719;45.544;10.218;2023-10-19T00:32:31;99405.03;;;13.22;97.19
80393;BME280;69719;45.544;10.218;2023-10-19T00:34:56;99403.22;;;13.44;95.67
80393;BME280;69719;45.544;10.218;2023-10-19T00:37:22;99411.06;;;13.44;95.32
80393;BME280;69719;45.544;10.218;2023-10-19T00:39:55;99388.41;;;13.06;97.01
80393;BME280;69719;45.544;10.218;2023-10-19T00:42:21;99388.56;;;12.99;97.31
80393;BME280;69719;45.544;10.218;2023-10-19T00:44:51;99374.09;;;12.92;98.16
80393;BME280;69719;45.544;10.218;2023-10-19T00:47:16;99373.31;;;12.91;98.44
80393;BME280;69719;45.544;10.218;2023-10-19T00:49:48;99372.78;;;12.89;98.99
80393;BME280;69719;45.544;10.218;2023-10-19T00:52:14;99362.97;;;12.80;99.17
80393;BME280;69719;45.544;10.218;2023-10-19T00:54:49;99365.84;;;12.78;100.00
80393;BME280;69719;45.544;10.218;2023-10-19T00:57:16;99361.34;;;12.95;99.34
80393;BME280;69719;45.544;10.218;2023-10-19T00:59:45;99361.16;;;13.19;98.81
80393;BME280;69719;45.544;10.218;2023-10-19T01:02:25;99360.63;;;13.22;97.67
80393;BME280;69719;45.544;10.218;2023-10-19T01:04:53;99366.44;;;13.24;97.50
80393;BME280;69719;45.544;10.218;2023-10-19T01:07:28;99348.34;;;13.17;97.09
80393;BME280;69719;45.544;10.218;2023-10-19T01:09:56;99338.88;;;12.94;98.47
80393;BME280;69719;45.544;10.218;2023-10-19T01:12:26;99339.97;;;12.98;98.88
80393;BME280;69719;45.544;10.218;2023-10-19T01:15:17;99324.72;;;12.90;99.87
80393;BME280;69719;45.544;10.218;2023-10-19T01:17:44;99315.88;;;12.91;100.00
80393;BME280;69719;45.544;10.218;2023-10-19T01:20:16;99318.59;;;13.01;99.20
80393;BME280;69719;45.544;10.218;2023-10-19T01:22:53;99318.91;;;13.05;99.20
80393;BME280;69719;45.544;10.218;2023-10-19T01:28:15;99309.13;;;12.95;99.31
80393;BME280;69719;45.544;10.218;2023-10-19T01:30:43;99307.50;;;13.11;100.00
80393;BME280;69719;45.544;10.218;2023-10-19T01:33:10;99302.47;;;13.04;99.92
80393;BME280;69719;45.544;10.218;2023-10-19T01:35:41;99292.91;;;12.93;99.84
80393;BME280;69719;45.544;10.218;2023-10-19T01:38:26;99284.47;;;12.86;100.00
80393;BME280;69719;45.544;10.218;2023-10-19T01:40:56;99296.47;;;12.87;100.00
80393;BME280;69719;45.544;10.218;2023-10-19T01:43:25;99284.00;;;12.89;100.00
80393;BME280;69719;45.544;10.218;2023-10-19T01:45:53;99277.19;;;12.88;100.00
80393;BME280;69719;45.544;10.218;2023-10-19T01:48:20;99278.09;;;12.99;100.00
80393;BME280;69719;45.544;10.218;2023-10-19T01:50:53;99279.44;;;13.01;100.00
80393;BME280;69719;45.544;10.218;2023-10-19T01:53:18;99280.53;;;13.05;99.96
80393;BME280;69719;45.544;10.218;2023-10-19T01:55:50;99264.88;;;13.05;100.00
80393;BME280;69719;45.544;10.218;2023-10-19T01:58:23;99265.75;;;12.94;100.00
80393;BME280;69719;45.544;10.218;2023-10-19T02:00:50;99265.72;;;12.89;100.00
80393;BME280;69719;45.544;10.218;2023-10-19T02:03:19;99270.72;;;12.96;100.00
80393;BME280;69719;45.544;10.218;2023-10-19T02:05:47;99273.94;;;13.03;100.00
80393;BME280;69719;45.544;10.218;2023-10-19T02:08:15;99268.50;;;13.04;100.00
80393;BME280;69719;45.544;10.218;2023-10-19T02:10:46;99266.63;;;13.00;100.00
80393;BME280;69719;45.544;10.218;2023-10-19T02:13:12;99256.00;;;12.85;100.00
80393;BME280;69719;45.544;10.218;2023-10-19T02:15:42;99254.84;;;13.19;100.00
80393;BME280;69719;45.544;10.218;2023-10-19T02:18:09;99253.16;;;13.35;99.44
80393;BME280;69719;45.544;10.218;2023-10-19T02:20:36;99244.28;;;13.36;98.75
80393;BME280;69719;45.544;10.218;2023-10-19T02:23:07;99236.09;;;13.27;98.41
80393;BME280;69719;45.544;10.218;2023-10-19T02:25:33;99227.41;;;13.22;98.79
80393;BME280;69719;45.544;10.218;2023-10-19T02:28:05;99232.56;;;13.38;99.08
80393;BME280;69719;45.544;10.218;2023-10-19T02:30:34;99232.88;;;13.47;98.00
80393;BME280;69719;45.544;10.218;2023-10-19T02:33:00;99223.53;;;13.24;98.31
80393;BME280;69719;45.544;10.218;2023-10-19T02:35:27;99225.22;;;13.08;99.15
80393;BME280;69719;45.544;10.218;2023-10-19T02:37:53;99219.56;;;13.22;99.93
80393;BME280;69719;45.544;10.218;2023-10-19T02:40:19;99211.19;;;13.20;99.82
80393;BME280;69719;45.544;10.218;2023-10-19T02:42:48;99206.50;;;13.17;99.36
80393;BME280;69719;45.544;10.218;2023-10-19T02:45:16;99204.94;;;13.21;99.28
80393;BME280;69719;45.544;10.218;2023-10-19T02:47:45;99203.63;;;13.18;99.58
80393;BME280;69719;45.544;10.218;2023-10-19T02:50:11;99212.41;;;13.39;98.87
80393;BME280;69719;45.544;10.218;2023-10-19T02:52:41;99212.19;;;13.40;98.23
80393;BME280;69719;45.544;10.218;2023-10-19T02:55:08;99210.09;;;13.42;98.50
80393;BME280;69719;45.544;10.218;2023-10-19T02:57:37;99197.13;;;13.21;98.61
80393;BME280;69719;45.544;10.218;2023-10-19T03:00:06;99192.78;;;13.04;99.50
80393;BME280;69719;45.544;10.218;2023-10-19T03:02:39;99189.56;;;12.97;100.00
80393;BME280;69719;45.544;10.218;2023-10-19T03:05:05;99189.06;;;13.00;100.00
80393;BME280;69719;45.544;10.218;2023-10-19T03:07:39;99176.44;;;12.92;100.00
80393;BME280;69719;45.544;10.218;2023-10-19T03:10:05;99178.50;;;13.12;100.00
80393;BME280;69719;45.544;10.218;2023-10-19T03:12:31;99169.28;;;13.04;100.00
80393;BME280;69719;45.544;10.218;2023-10-19T03:14:58;99180.56;;;13.10;100.00
80393;BME280;69719;45.544;10.218;2023-10-19T03:17:25;99168.13;;;12.95;100.00
80393;BME280;69719;45.544;10.218;2023-10-19T03:19:52;99164.91;;;12.88;100.00
80393;BME280;69719;45.544;10.218;2023-10-19T03:22:17;99165.31;;;13.02;100.00
80393;BME280;69719;45.544;10.218;2023-10-19T03:24:44;99163.41;;;12.92;100.00
80393;BME280;69719;45.544;10.218;2023-10-19T03:27:15;99166.75;;;12.88;100.00
80393;BME280;69719;45.544;10.218;2023-10-19T03:29:42;99162.25;;;12.83;100.00
80393;BME280;69719;45.544;10.218;2023-10-19T03:32:11;99157.09;;;12.88;100.00
80393;BME280;69719;45.544;10.218;2023-10-19T03:34:38;99149.22;;;13.10;100.00
80393;BME280;69719;45.544;10.218;2023-10-19T03:37:04;99140.06;;;13.07;100.00
80393;BME280;69719;45.544;10.218;2023-10-19T03:39:34;99149.50;;;13.13;100.00
80393;BME280;69719;45.544;10.218;2023-10-19T03:42:03;99144.75;;;13.05;100.00
80393;BME280;69719;45.544;10.218;2023-10-19T03:44:32;99141.66;;;13.08;100.00
80393;BME280;69719;45.544;10.218;2023-10-19T03:47:10;99134.34;;;13.10;100.00
80393;BME280;69719;45.544;10.218;2023-10-19T03:49:39;99140.97;;;12.96;100.00
80393;BME280;69719;45.544;10.218;2023-10-19T03:52:06;99134.75;;;13.02;100.00
80393;BME280;69719;45.544;10.218;2023-10-19T03:54:35;99139.75;;;13.04;100.00
80393;BME280;69719;45.544;10.218;2023-10-19T03:57:04;99131.19;;;13.08;100.00
80393;BME280;69719;45.544;10.218;2023-10-19T03:59:40;99130.09;;;13.04;100.00
80393;BME280;69719;45.544;10.218;2023-10-19T04:02:10;99124.56;;;13.01;100.00
80393;BME280;69719;45.544;10.218;2023-10-19T04:04:41;99128.44;;;12.93;100.00
80393;BME280;69719;45.544;10.218;2023-10-19T04:07:14;99121.81;;;12.86;100.00
80393;BME280;69719;45.544;10.218;2023-10-19T04:09:58;99112.91;;;12.82;100.00
80393;BME280;69719;45.544;10.218;2023-10-19T04:12:29;99119.75;;;12.88;100.00
80393;BME280;69719;45.544;10.218;2023-10-19T04:15:01;99112.03;;;13.03;100.00
80393;BME280;69719;45.544;10.218;2023-10-19T04:17:37;99110.97;;;12.99;100.00
80393;BME280;69719;45.544;10.218;2023-10-19T04:20:05;99111.75;;;12.99;100.00
80393;BME280;69719;45.544;10.218;2023-10-19T04:22:46;99099.66;;;13.15;100.00
80393;BME280;69719;45.544;10.218;2023-10-19T04:25:13;99104.19;;;12.98;100.00
80393;BME280;69719;45.544;10.218;2023-10-19T04:27:43;99083.31;;;12.98;100.00
80393;BME280;69719;45.544;10.218;2023-10-19T04:30:12;99073.28;;;13.17;100.00
80393;BME280;69719;45.544;10.218;2023-10-19T04:32:48;99066.13;;;13.44;100.00
80393;BME280;69719;45.544;10.218;2023-10-19T04:35:18;99063.78;;;13.42;100.00
80393;BME280;69719;45.544;10.218;2023-10-19T04:37:51;99054.88;;;13.43;100.00
80393;BME280;69719;45.544;10.218;2023-10-19T04:40:18;99054.03;;;13.33;100.00
80393;BME280;69719;45.544;10.218;2023-10-19T04:42:45;99054.56;;;13.30;100.00
80393;BME280;69719;45.544;10.218;2023-10-19T04:45:11;99040.41;;;13.21;100.00
80393;BME280;69719;45.544;10.218;2023-10-19T04:47:37;99046.75;;;13.35;100.00
80393;BME280;69719;45.544;10.218;2023-10-19T04:50:07;99043.59;;;13.33;100.00
80393;BME280;69719;45.544;10.218;2023-10-19T04:52:33;99041.94;;;13.22;100.00
80393;BME280;69719;45.544;10.218;2023-10-19T04:54:59;99050.41;;;13.34;100.00
80393;BME280;69719;45.544;10.218;2023-10-19T04:57:26;99052.88;;;13.60;100.00
80393;BME280;69719;45.544;10.218;2023-10-19T04:59:52;99066.00;;;13.65;99.48
80393;BME280;69719;45.544;10.218;2023-10-19T05:02:17;99064.06;;;13.46;99.11
80393;BME280;69719;45.544;10.218;2023-10-19T05:04:43;99071.44;;;13.59;100.00
80393;BME280;69719;45.544;10.218;2023-10-19T05:07:10;99061.03;;;13.64;99.42
80393;BME280;69719;45.544;10.218;2023-10-19T05:09:42;99067.31;;;13.73;98.53
80393;BME280;69719;45.544;10.218;2023-10-19T05:12:08;99071.25;;;13.70;98.08
80393;BME280;69719;45.544;10.218;2023-10-19T05:14:43;99069.84;;;13.53;99.19
80393;BME280;69719;45.544;10.218;2023-10-19T05:17:09;99068.47;;;13.40;99.73
80393;BME280;69719;45.544;10.218;2023-10-19T05:19:36;99066.09;;;13.34;100.00
80393;BME280;69719;45.544;10.218;2023-10-19T05:22:04;99071.25;;;13.24;100.00
80393;BME280;69719;45.544;10.218;2023-10-19T05:24:31;99070.94;;;13.20;100.00
80393;BME280;69719;45.544;10.218;2023-10-19T05:26:57;99071.69;;;13.15;100.00
80393;BME280;69719;45.544;10.218;2023-10-19T05:29:23;99063.72;;;13.32;100.00
80393;BME280;69719;45.544;10.218;2023-10-19T05:31:52;99060.69;;;13.50;100.00
80393;BME280;69719;45.544;10.218;2023-10-19T05:34:23;99066.44;;;13.52;100.00
80393;BME280;69719;45.544;10.218;2023-10-19T05:36:49;99063.84;;;13.52;100.00
80393;BME280;69719;45.544;10.218;2023-10-19T05:39:16;99073.44;;;13.42;100.00
80393;BME280;69719;45.544;10.218;2023-10-19T05:41:42;99069.22;;;13.36;100.00
80393;BME280;69719;45.544;10.218;2023-10-19T05:44:07;99071.31;;;13.34;100.00
80393;BME280;69719;45.544;10.218;2023-10-19T05:46:33;99075.53;;;13.40;100.00
80393;BME280;69719;45.544;10.218;2023-10-19T05:48:59;99077.69;;;13.53;100.00
80393;BME280;69719;45.544;10.218;2023-10-19T05:51:26;99076.59;;;13.44;99.85
80393;BME280;69719;45.544;10.218;2023-10-19T05:53:52;99069.72;;;13.33;99.83
80393;BME280;69719;45.544;10.218;2023-10-19T05:56:19;99063.44;;;13.29;100.00
80393;BME280;69719;45.544;10.218;2023-10-19T05:58:46;99051.97;;;13.35;100.00
80393;BME280;69719;45.544;10.218;2023-10-19T06:01:16;99051.94;;;13.30;100.00
80393;BME280;69719;45.544;10.218;2023-10-19T06:03:43;99048.84;;;13.38;100.00
80393;BME280;69719;45.544;10.218;2023-10-19T06:06:10;99057.19;;;13.35;100.00
80393;BME280;69719;45.544;10.218;2023-10-19T06:08:35;99054.63;;;13.40;100.00
80393;BME280;69719;45.544;10.218;2023-10-19T06:11:01;99056.13;;;13.31;100.00
80393;BME280;69719;45.544;10.218;2023-10-19T06:13:26;99054.13;;;13.43;100.00
80393;BME280;69719;45.544;10.218;2023-10-19T06:15:52;99055.19;;;13.52;100.00
80393;BME280;69719;45.544;10.218;2023-10-19T06:18:17;99053.03;;;13.39;100.00
80393;BME280;69719;45.544;10.218;2023-10-19T06:20:44;99047.78;;;13.34;100.00
80393;BME280;69719;45.544;10.218;2023-10-19T06:23:09;99037.91;;;13.46;100.00
80393;BME280;69719;45.544;10.218;2023-10-19T06:25:37;99042.66;;;13.49;100.00
80393;BME280;69719;45.544;10.218;2023-10-19T06:28:03;99032.81;;;13.66;100.00
80393;BME280;69719;45.544;10.218;2023-10-19T06:30:29;99032.34;;;13.79;100.00
80393;BME280;69719;45.544;10.218;2023-10-19T06:32:59;99038.53;;;13.63;100.00
80393;BME280;69719;45.544;10.218;2023-10-19T06:35:26;99040.34;;;13.57;100.00
80393;BME280;69719;45.544;10.218;2023-10-19T06:37:53;99044.06;;;13.66;100.00
80393;BME280;69719;45.544;10.218;2023-10-19T06:40:18;99046.88;;;13.55;100.00
80393;BME280;69719;45.544;10.218;2023-10-19T06:42:44;99044.78;;;13.57;100.00
80393;BME280;69719;45.544;10.218;2023-10-19T06:45:11;99041.72;;;13.70;100.00
80393;BME280;69719;45.544;10.218;2023-10-19T06:47:49;99035.25;;;13.87;100.00
80393;BME280;69719;45.544;10.218;2023-10-19T06:50:17;99035.78;;;13.94;99.34
80393;BME280;69719;45.544;10.218;2023-10-19T06:52:44;99037.50;;;13.69;100.00
80393;BME280;69719;45.544;10.218;2023-10-19T06:55:10;99034.13;;;13.73;100.00
80393;BME280;69719;45.544;10.218;2023-10-19T06:57:43;99032.78;;;13.61;100.00
80393;BME280;69719;45.544;10.218;2023-10-19T07:00:11;99022.28;;;13.56;100.00
80393;BME280;69719;45.544;10.218;2023-10-19T07:02:40;99029.09;;;13.57;100.00
80393;BME280;69719;45.544;10.218;2023-10-19T07:05:07;99034.56;;;13.50;100.00
80393;BME280;69719;45.544;10.218;2023-10-19T07:07:42;99043.22;;;13.61;100.00
80393;BME280;69719;45.544;10.218;2023-10-19T07:10:09;99031.28;;;13.80;100.00
80393;BME280;69719;45.544;10.218;2023-10-19T07:12:36;99036.03;;;13.83;100.00
80393;BME280;69719;45.544;10.218;2023-10-19T07:15:04;99039.09;;;13.70;100.00
80393;BME280;69719;45.544;10.218;2023-10-19T07:17:33;99042.72;;;13.64;100.00
80393;BME280;69719;45.544;10.218;2023-10-19T07:20:00;99041.38;;;13.56;100.00
80393;BME280;69719;45.544;10.218;2023-10-19T07:22:25;99037.50;;;13.69;100.00
80393;BME280;69719;45.544;10.218;2023-10-19T07:24:51;99043.75;;;13.63;100.00
80393;BME280;69719;45.544;10.218;2023-10-19T07:27:16;99033.91;;;13.75;100.00
80393;BME280;69719;45.544;10.218;2023-10-19T07:29:45;99028.63;;;13.70;100.00
80393;BME280;69719;45.544;10.218;2023-10-19T07:32:12;99024.69;;;13.67;100.00
80393;BME280;69719;45.544;10.218;2023-10-19T07:34:39;99025.22;;;13.69;100.00
80393;BME280;69719;45.544;10.218;2023-10-19T07:37:05;99006.97;;;13.74;100.00
80393;BME280;69719;45.544;10.218;2023-10-19T07:39:32;99000.97;;;13.79;100.00
80393;BME280;69719;45.544;10.218;2023-10-19T07:41:59;98997.84;;;13.87;100.00
80393;BME280;69719;45.544;10.218;2023-10-19T07:44:24;98990.53;;;13.89;99.90
80393;BME280;69719;45.544;10.218;2023-10-19T07:46:51;98989.19;;;13.81;100.00
80393;BME280;69719;45.544;10.218;2023-10-19T07:49:18;98988.44;;;13.91;100.00
80393;BME280;69719;45.544;10.218;2023-10-19T07:51:53;99005.16;;;13.90;100.00
80393;BME280;69719;45.544;10.218;2023-10-19T07:54:18;99010.94;;;13.92;100.00
80393;BME280;69719;45.544;10.218;2023-10-19T07:56:46;99011.97;;;13.91;100.00
80393;BME280;69719;45.544;10.218;2023-10-19T07:59:12;99011.47;;;13.89;100.00
80393;BME280;69719;45.544;10.218;2023-10-19T08:01:38;98999.97;;;13.95;99.14
80393;BME280;69719;45.544;10.218;2023-10-19T08:04:04;98997.88;;;13.92;98.79
80393;BME280;69719;45.544;10.218;2023-10-19T08:06:30;98997.88;;;13.97;98.28
80393;BME280;69719;45.544;10.218;2023-10-19T08:08:57;98994.78;;;14.15;97.30
80393;BME280;69719;45.544;10.218;2023-10-19T08:11:23;98993.28;;;14.34;97.46
80393;BME280;69719;45.544;10.218;2023-10-19T08:13:49;99001.63;;;14.26;96.77
80393;BME280;69719;45.544;10.218;2023-10-19T08:16:15;98986.91;;;14.05;97.38
80393;BME280;69719;45.544;10.218;2023-10-19T08:18:42;98973.59;;;14.27;98.39
80393;BME280;69719;45.544;10.218;2023-10-19T08:21:08;98976.53;;;14.40;96.85
80393;BME280;69719;45.544;10.218;2023-10-19T08:23:34;98960.25;;;14.13;96.06
80393;BME280;69719;45.544;10.218;2023-10-19T08:26:03;98960.22;;;13.98;98.02
80393;BME280;69719;45.544;10.218;2023-10-19T08:28:31;98954.75;;;14.05;98.36
80393;BME280;69719;45.544;10.218;2023-10-19T08:30:58;98947.97;;;14.09;98.11
80393;BME280;69719;45.544;10.218;2023-10-19T08:33:26;98955.28;;;14.17;98.75
80393;BME280;69719;45.544;10.218;2023-10-19T08:35:53;98946.91;;;14.05;98.36
80393;BME280;69719;45.544;10.218;2023-10-19T08:38:20;98939.31;;;14.03;99.58
80393;BME280;69719;45.544;10.218;2023-10-19T08:40:47;98939.59;;;14.17;99.76
80393;BME280;69719;45.544;10.218;2023-10-19T08:43:13;98944.03;;;14.16;99.74
80393;BME280;69719;45.544;10.218;2023-10-19T08:45:39;98948.72;;;14.14;100.00
80393;BME280;69719;45.544;10.218;2023-10-19T08:48:05;98950.56;;;14.14;100.00
80393;BME280;69719;45.544;10.218;2023-10-19T08:50:34;98945.63;;;14.27;100.00
80393;BME280;69719;45.544;10.218;2023-10-19T08:53:01;98946.19;;;14.49;99.59
80393;BME280;69719;45.544;10.218;2023-10-19T08:55:30;98956.34;;;14.26;99.77
80393;BME280;69719;45.544;10.218;2023-10-19T08:57:56;98957.16;;;14.41;100.00
80393;BME280;69719;45.544;10.218;2023-10-19T09:00:25;98959.50;;;14.38;100.00
80393;BME280;69719;45.544;10.218;2023-10-19T09:02:54;98955.56;;;14.25;100.00
80393;BME280;69719;45.544;10.218;2023-10-19T09:05:21;98951.38;;;14.09;100.00
80393;BME280;69719;45.544;10.218;2023-10-19T09:07:52;98946.34;;;13.92;100.00
80393;BME280;69719;45.544;10.218;2023-10-19T09:10:24;98952.91;;;14.05;100.00
80393;BME280;69719;45.544;10.218;2023-10-19T09:13:07;98950.84;;;14.27;100.00
80393;BME280;69719;45.544;10.218;2023-10-19T09:15:38;98950.81;;;14.12;100.00
80393;BME280;69719;45.544;10.218;2023-10-19T09:18:23;98932.50;;;14.02;100.00
80393;BME280;69719;45.544;10.218;2023-10-19T09:20:51;98923.91;;;14.17;100.00
80393;BME280;69719;45.544;10.218;2023-10-19T09:23:27;98913.19;;;14.13;100.00
80393;BME280;69719;45.544;10.218;2023-10-19T09:25:56;98904.31;;;14.34;100.00
80393;BME280;69719;45.544;10.218;2023-10-19T09:28:22;98906.66;;;14.36;100.00
80393;BME280;69719;45.544;10.218;2023-10-19T09:30:49;98899.31;;;14.48;99.21
80393;BME280;69719;45.544;10.218;2023-10-19T09:33:15;98896.97;;;14.46;97.86
80393;BME280;69719;45.544;10.218;2023-10-19T09:35:45;98890.41;;;14.19;99.99
80393;BME280;69719;45.544;10.218;2023-10-19T09:38:14;98899.03;;;14.24;99.88
80393;BME280;69719;45.544;10.218;2023-10-19T09:40:40;98892.81;;;14.30;99.84
80393;BME280;69719;45.544;10.218;2023-10-19T09:43:10;98904.81;;;14.46;100.00
80393;BME280;69719;45.544;10.218;2023-10-19T09:45:41;98895.91;;;14.52;100.00
80393;BME280;69719;45.544;10.218;2023-10-19T09:48:11;98896.41;;;14.69;99.56
80393;BME280;69719;45.544;10.218;2023-10-19T09:50:44;98901.66;;;14.80;99.13
80393;BME280;69719;45.544;10.218;2023-10-19T09:53:11;98904.50;;;14.78;98.84
80393;BME280;69719;45.544;10.218;2023-10-19T09:55:38;98905.81;;;14.81;97.61
80393;BME280;69719;45.544;10.218;2023-10-19T09:58:33;98902.47;;;14.55;98.15
80393;BME280;69719;45.544;10.218;2023-10-19T10:01:01;98893.31;;;14.37;99.59
80393;BME280;69719;45.544;10.218;2023-10-19T10:03:47;98901.16;;;14.42;100.00
80393;BME280;69719;45.544;10.218;2023-10-19T10:06:15;98900.59;;;14.65;100.00
80393;BME280;69719;45.544;10.218;2023-10-19T10:08:42;98886.72;;;14.65;99.69
80393;BME280;69719;45.544;10.218;2023-10-19T10:13:42;98882.31;;;14.40;99.73
80393;BME280;69719;45.544;10.218;2023-10-19T10:16:13;98874.13;;;14.82;97.14
80393;BME280;69719;45.544;10.218;2023-10-19T10:18:40;98872.59;;;14.71;97.05
80393;BME280;69719;45.544;10.218;2023-10-19T10:23:48;98864.44;;;14.88;97.06
80393;BME280;69719;45.544;10.218;2023-10-19T10:26:18;98860.69;;;15.04;96.99
80393;BME280;69719;45.544;10.218;2023-10-19T10:28:48;98860.75;;;14.94;95.79
80393;BME280;69719;45.544;10.218;2023-10-19T10:31:19;98859.66;;;15.00;96.48
80393;BME280;69719;45.544;10.218;2023-10-19T10:33:53;98855.41;;;15.19;95.89
80393;BME280;69719;45.544;10.218;2023-10-19T10:36:22;98854.38;;;15.10;95.29
80393;BME280;69719;45.544;10.218;2023-10-19T10:38:49;98857.03;;;15.00;95.45
80393;BME280;69719;45.544;10.218;2023-10-19T10:41:24;98854.66;;;15.08;95.73
80393;BME280;69719;45.544;10.218;2023-10-19T10:43:55;98862.56;;;14.98;95.11
80393;BME280;69719;45.544;10.218;2023-10-19T10:46:22;98854.22;;;14.86;96.56
80393;BME280;69719;45.544;10.218;2023-10-19T10:48:48;98857.94;;;14.75;97.74
80393;BME280;69719;45.544;10.218;2023-10-19T10:51:29;98860.28;;;14.72;98.32
80393;BME280;69719;45.544;10.218;2023-10-19T10:53:57;98869.47;;;14.69;98.22
80393;BME280;69719;45.544;10.218;2023-10-19T10:56:24;98874.44;;;14.71;98.96
80393;BME280;69719;45.544;10.218;2023-10-19T10:58:49;98867.63;;;14.54;99.49
80393;BME280;69719;45.544;10.218;2023-10-19T11:01:27;98869.75;;;14.47;100.00
80393;BME280;69719;45.544;10.218;2023-10-19T11:04:05;98865.56;;;14.46;100.00
80393;BME280;69719;45.544;10.218;2023-10-19T11:06:32;98857.16;;;14.54;100.00
80393;BME280;69719;45.544;10.218;2023-10-19T11:08:57;98870.00;;;14.56;100.00
80393;BME280;69719;45.544;10.218;2023-10-19T11:11:22;98861.38;;;14.50;100.00
80393;BME280;69719;45.544;10.218;2023-10-19T11:13:48;98858.25;;;14.38;100.00
80393;BME280;69719;45.544;10.218;2023-10-19T11:16:22;98840.16;;;14.57;100.00
80393;BME280;69719;45.544;10.218;2023-10-19T11:18:48;98810.09;;;14.49;99.63
80393;BME280;69719;45.544;10.218;2023-10-19T11:21:15;98780.97;;;14.71;99.09
80393;BME280;69719;45.544;10.218;2023-10-19T11:23:49;98779.09;;;14.82;98.15
80393;BME280;69719;45.544;10.218;2023-10-19T11:26:22;98765.47;;;14.80;98.77
80393;BME280;69719;45.544;10.218;2023-10-19T11:29:00;98771.25;;;14.72;100.00
80393;BME280;69719;45.544;10.218;2023-10-19T11:31:26;98779.66;;;14.68;99.92
80393;BME280;69719;45.544;10.218;2023-10-19T11:33:54;98792.50;;;14.60;100.00
80393;BME280;69719;45.544;10.218;2023-10-19T11:36:23;98811.63;;;14.60;100.00
80393;BME280;69719;45.544;10.218;2023-10-19T11:38:51;98820.44;;;14.85;100.00
80393;BME280;69719;45.544;10.218;2023-10-19T11:41:17;98822.53;;;14.83;100.00
80393;BME280;69719;45.544;10.218;2023-10-19T11:43:46;98837.78;;;14.65;99.98
80393;BME280;69719;45.544;10.218;2023-10-19T11:46:12;98839.63;;;14.55;100.00
80393;BME280;69719;45.544;10.218;2023-10-19T11:48:38;98834.69;;;14.43;100.00
80393;BME280;69719;45.544;10.218;2023-10-19T11:51:05;98838.03;;;14.69;100.00
80393;BME280;69719;45.544;10.218;2023-10-19T11:53:35;98850.31;;;14.74;100.00
80393;BME280;69719;45.544;10.218;2023-10-19T11:56:09;98841.16;;;14.76;100.00
80393;BME280;69719;45.544;10.218;2023-10-19T11:58:36;98838.59;;;14.46;100.00
80393;BME280;69719;45.544;10.218;2023-10-19T12:01:12;98839.94;;;14.38;100.00
80393;BME280;69719;45.544;10.218;2023-10-19T12:03:41;98842.22;;;14.75;100.00
80393;BME280;69719;45.544;10.218;2023-10-19T12:06:07;98851.44;;;14.47;100.00
80393;BME280;69719;45.544;10.218;2023-10-19T12:08:34;98849.09;;;14.36;100.00
80393;BME280;69719;45.544;10.218;2023-10-19T12:11:00;98834.69;;;14.33;100.00
80393;BME280;69719;45.544;10.218;2023-10-19T12:13:42;98827.91;;;14.32;100.00
80393;BME280;69719;45.544;10.218;2023-10-19T12:16:15;98814.78;;;14.27;100.00
80393;BME280;69719;45.544;10.218;2023-10-19T12:18:41;98806.97;;;14.32;100.00
80393;BME280;69719;45.544;10.218;2023-10-19T12:21:08;98784.97;;;14.28;100.00
80393;BME280;69719;45.544;10.218;2023-10-19T12:23:39;98779.50;;;14.30;100.00
80393;BME280;69719;45.544;10.218;2023-10-19T12:26:05;98781.56;;;14.43;100.00
80393;BME280;69719;45.544;10.218;2023-10-19T12:28:40;98776.03;;;14.54;100.00
80393;BME280;69719;45.544;10.218;2023-10-19T12:31:08;98768.22;;;14.39;100.00
80393;BME280;69719;45.544;10.218;2023-10-19T12:33:38;98783.66;;;14.41;100.00
80393;BME280;69719;45.544;10.218;2023-10-19T12:36:04;98787.56;;;14.53;100.00
80393;BME280;69719;45.544;10.218;2023-10-19T12:38:49;98774.47;;;14.48;99.06
80393;BME280;69719;45.544;10.218;2023-10-19T12:41:15;98768.69;;;14.61;99.47
80393;BME280;69719;45.544;10.218;2023-10-19T12:43:40;98784.63;;;14.65;100.00
80393;BME280;69719;45.544;10.218;2023-10-19T12:46:07;98789.63;;;14.56;99.20
80393;BME280;69719;45.544;10.218;2023-10-19T12:48:34;98790.13;;;14.68;100.00
80393;BME280;69719;45.544;10.218;2023-10-19T12:51:01;98786.19;;;14.71;100.00
80393;BME280;69719;45.544;10.218;2023-10-19T12:53:27;98777.28;;;14.67;98.59
80393;BME280;69719;45.544;10.218;2023-10-19T12:55:53;98773.63;;;14.63;98.23
80393;BME280;69719;45.544;10.218;2023-10-19T12:58:18;98774.47;;;14.53;98.56